Norwegian Sun — C6RN3 — position and weather

sailwx.info

Track history (hours):
 
Tides and Currents Weather Stations Pressure Air Temp Water Temp Dewpoint Dewpoint Depression Visibility Wind Speed Wind Dir Waves Ship Positions

Norwegian Sun

Operator: Norwegian Cruise Line

Last reported at 2018-Jun-22 04:49 UTC. Time now 2018-Jun-25 00:40 UTC.
Position N 27°25' W 079°49'.

Type: Passenger vessel. MMSI: 311109000.

Date/timePositionNaut miles runAvg speedWind from/ knotsBaromVisibWave heightAir tempDewpointWater temp
2018-Jun-22 04:49N 27°25' W 079°49'1716.0
2018-Jun-22 03:46N 27°09' W 079°41'615.8
2018-Jun-22 03:24N 27°04' W 079°38'815.5
2018-Jun-22 02:52N 26°57' W 079°35'715.3
2018-Jun-22 02:26N 26°50' W 079°33'1714.5
2018-Jun-22 01:14N 26°33' W 079°29'1016.0
2018-Jun-22 00:38N 26°23' W 079°29'219.5
2018-Jun-22 00:30N 26°21' W 079°29'1019.6
2018-Jun-22 00:00N 26°11' W 079°31'1020.0
2018-Jun-21 23:30N 26°01' W 079°33'1020.1
2018-Jun-21 23:00N 25°52' W 079°35'1020.0
2018-Jun-21 22:30N 25°42' W 079°37'815.4
2018-Jun-21 22:00N 25°34' W 079°38'1019.8
2018-Jun-21 21:29N 25°24' W 079°39'  
2018-Jun-19 08:03N 25°17' W 079°40'118.2
2018-Jun-19 08:00N 25°18' W 079°40'918.1
2018-Jun-19 07:30N 25°27' W 079°39'918.0
2018-Jun-19 07:00N 25°36' W 079°38'917.9
2018-Jun-19 06:30N 25°45' W 079°37'917.8
2018-Jun-19 06:00N 25°53' W 079°36'917.8
2018-Jun-19 05:30N 26°02' W 079°34'918.0
2018-Jun-19 05:00N 26°11' W 079°31'918.3
2018-Jun-19 04:30N 26°20' W 079°29'  
2018-Jun-16 05:13N 26°20' W 078°50'1122.0
2018-Jun-16 04:43N 26°25' W 079°01'3121.4
2018-Jun-16 03:17N 26°53' W 079°16'1320.4
2018-Jun-16 02:37N 27°05' W 079°21'48 1.9
2018-Jun-15 00:32N 26°18' W 079°30'015.7
2018-Jun-15 00:30N 26°17' W 079°30'815.9
2018-Jun-15 00:00N 26°10' W 079°32'815.9
2018-Jun-14 23:30N 26°02' W 079°34'816.1
2018-Jun-14 23:00N 25°54' W 079°35'815.6
2018-Jun-14 22:30N 25°46' W 079°36'713.6
2018-Jun-14 22:00N 25°39' W 079°37'  
2018-Jun-12 07:13N 25°20' W 079°40'419.1
2018-Jun-12 07:00N 25°24' W 079°40'1018.9
2018-Jun-12 06:30N 25°33' W 079°40'918.7
2018-Jun-12 06:00N 25°42' W 079°38'919.1
2018-Jun-12 05:31N 25°51' W 079°35'1019.4
2018-Jun-12 05:00N 26°01' W 079°33'  
Track history (hours):
 
Tides and Currents Weather Stations Pressure Air Temp Water Temp Dewpoint Dewpoint Depression Visibility Wind Speed Wind Dir Waves Ship Positions

Norwegian Sun

Operator: Norwegian Cruise Line

Last reported at 2018-Jun-22 04:49 UTC. Time now 2018-Jun-25 00:40 UTC.
Position N 27°25' W 079°49'.

Type: Passenger vessel. MMSI: 311109000.

Date/timePositionNaut miles runAvg speedWind from/ knotsBaromVisibWave heightAir tempDewpointWater temp
2018-Jun-22 04:49N 27°25' W 079°49'1716.0
2018-Jun-22 03:46N 27°09' W 079°41'615.8
2018-Jun-22 03:24N 27°04' W 079°38'815.5
2018-Jun-22 02:52N 26°57' W 079°35'715.3
2018-Jun-22 02:26N 26°50' W 079°33'1714.5
2018-Jun-22 01:14N 26°33' W 079°29'1016.0
2018-Jun-22 00:38N 26°23' W 079°29'219.5
2018-Jun-22 00:30N 26°21' W 079°29'1019.6
2018-Jun-22 00:00N 26°11' W 079°31'1020.0
2018-Jun-21 23:30N 26°01' W 079°33'1020.1
2018-Jun-21 23:00N 25°52' W 079°35'1020.0
2018-Jun-21 22:30N 25°42' W 079°37'815.4
2018-Jun-21 22:00N 25°34' W 079°38'1019.8
2018-Jun-21 21:29N 25°24' W 079°39'  
2018-Jun-19 08:03N 25°17' W 079°40'118.2
2018-Jun-19 08:00N 25°18' W 079°40'918.1
2018-Jun-19 07:30N 25°27' W 079°39'918.0
2018-Jun-19 07:00N 25°36' W 079°38'917.9
2018-Jun-19 06:30N 25°45' W 079°37'917.8
2018-Jun-19 06:00N 25°53' W 079°36'917.8
2018-Jun-19 05:30N 26°02' W 079°34'918.0
2018-Jun-19 05:00N 26°11' W 079°31'918.3
2018-Jun-19 04:30N 26°20' W 079°29'  
2018-Jun-16 05:13N 26°20' W 078°50'1122.0
2018-Jun-16 04:43N 26°25' W 079°01'3121.4
2018-Jun-16 03:17N 26°53' W 079°16'1320.4
2018-Jun-16 02:37N 27°05' W 079°21'48 1.9
2018-Jun-15 00:32N 26°18' W 079°30'015.7
2018-Jun-15 00:30N 26°17' W 079°30'815.9
2018-Jun-15 00:00N 26°10' W 079°32'815.9
2018-Jun-14 23:30N 26°02' W 079°34'816.1
2018-Jun-14 23:00N 25°54' W 079°35'815.6
2018-Jun-14 22:30N 25°46' W 079°36'713.6
2018-Jun-14 22:00N 25°39' W 079°37'  
2018-Jun-12 07:13N 25°20' W 079°40'419.1
2018-Jun-12 07:00N 25°24' W 079°40'1018.9
2018-Jun-12 06:30N 25°33' W 079°40'918.7
2018-Jun-12 06:00N 25°42' W 079°38'919.1
2018-Jun-12 05:31N 25°51' W 079°35'1019.4
2018-Jun-12 05:00N 26°01' W 079°33'  

Dump ship's entire track history